Hozan Maru — JJ4010 — position and weather

sailwx.info

Track history (hours):
 
Tides and Currents Weather Stations Pressure Air Temp Water Temp Dewpoint Dewpoint Depression Visibility Wind Speed Wind Dir Waves Ship Positions

Hozan Maru

Last reported at 2015-Mar-04 06:16 UTC. Time now 2015-Mar-04 18:55 UTC.
Position N 34°40' E 135°27'.

Length 38 m; draft 3.6 m.

Type: Tug. MMSI: 431401501.

Date/timePositionNaut miles runAvg speedWind from/ knotsBaromVisibWave heightAir tempDewpointWater temp
2015-Mar-04 06:16N 34°40' E 135°27'3 4.0
2015-Mar-04 05:34N 34°39' E 135°24'3 2.8
2015-Mar-04 04:32N 34°40' E 135°27'3 0.1
2015-Mar-02 13:33N 34°38' E 135°24'6 6.4
2015-Mar-02 12:33N 34°32' E 135°24'2 2.2
2015-Mar-02 11:24N 34°33' E 135°27'2 0.8
2015-Mar-02 08:31N 34°34' E 135°24'5 4.7
2015-Mar-02 07:33N 34°39' E 135°26'2 2.0
2015-Mar-02 06:32N 34°40' E 135°27'0 0.0
2015-Mar-02 05:33N 34°40' E 135°27'0 0.0
2015-Mar-02 04:33N 34°40' E 135°27'0 0.0
2015-Mar-02 02:32N 34°40' E 135°27'5 5.3
2015-Mar-02 01:33N 34°36' E 135°23'3 2.8
2015-Mar-02 00:33N 34°34' E 135°24'6 6.2
2015-Mar-01 23:33N 34°40' E 135°26'1 0.0
2015-Mar-01 03:03N 34°40' E 135°27'5 9.3
2015-Mar-01 02:33N 34°37' E 135°24'5 4.8
2015-Mar-01 01:33N 34°32' E 135°24'2 1.7
2015-Mar-01 00:32N 34°34' E 135°24'7 0.3
2015-Feb-28 03:33N 34°40' E 135°27'7 6.6
2015-Feb-28 02:33N 34°34' E 135°24'1 0.6
2015-Feb-28 01:30N 34°34' E 135°24'4 3.7
2015-Feb-28 00:33N 34°33' E 135°20'6 5.5
2015-Feb-27 23:33N 34°38' E 135°23'4 0.2
2015-Feb-27 06:19N 34°40' E 135°27'2 2.8
2015-Feb-27 05:33N 34°39' E 135°26'0 0.5
2015-Feb-27 04:33N 34°39' E 135°26'0 0.0
2015-Feb-27 03:33N 34°39' E 135°26'2 2.1
2015-Feb-27 02:33N 34°38' E 135°24'7 5.3
2015-Feb-27 01:14N 34°31' E 135°23'1 1.4
2015-Feb-27 00:33N 34°32' E 135°23'1 1.2
2015-Feb-26 23:32N 34°31' E 135°24'0 0.0
2015-Feb-26 22:30N 34°31' E 135°24'0 0.0
2015-Feb-26 21:33N 34°31' E 135°24'0 0.3
2015-Feb-26 20:32N 34°31' E 135°24'1010.0
2015-Feb-26 19:33N 34°40' E 135°27'  
2015-Feb-23 07:06N 34°40' E 135°23'5 8.2
2015-Feb-23 06:33N 34°41' E 135°18'1312.9
2015-Feb-23 05:33N 34°37' E 135°03'11 1.7
2015-Feb-22 23:09N 34°43' E 134°51'3 1.7
2015-Feb-22 21:17N 34°40' E 134°48'2 0.1
2015-Feb-22 06:22N 34°41' E 134°50'  
Track history (hours):
 
Tides and Currents Weather Stations Pressure Air Temp Water Temp Dewpoint Dewpoint Depression Visibility Wind Speed Wind Dir Waves Ship Positions

Hozan Maru

Last reported at 2015-Mar-04 06:16 UTC. Time now 2015-Mar-04 18:55 UTC.
Position N 34°40' E 135°27'.

Length 38 m; draft 3.6 m.

Type: Tug. MMSI: 431401501.

Date/timePositionNaut miles runAvg speedWind from/ knotsBaromVisibWave heightAir tempDewpointWater temp
2015-Mar-04 06:16N 34°40' E 135°27'3 4.0
2015-Mar-04 05:34N 34°39' E 135°24'3 2.8
2015-Mar-04 04:32N 34°40' E 135°27'3 0.1
2015-Mar-02 13:33N 34°38' E 135°24'6 6.4
2015-Mar-02 12:33N 34°32' E 135°24'2 2.2
2015-Mar-02 11:24N 34°33' E 135°27'2 0.8
2015-Mar-02 08:31N 34°34' E 135°24'5 4.7
2015-Mar-02 07:33N 34°39' E 135°26'2 2.0
2015-Mar-02 06:32N 34°40' E 135°27'0 0.0
2015-Mar-02 05:33N 34°40' E 135°27'0 0.0
2015-Mar-02 04:33N 34°40' E 135°27'0 0.0
2015-Mar-02 02:32N 34°40' E 135°27'5 5.3
2015-Mar-02 01:33N 34°36' E 135°23'3 2.8
2015-Mar-02 00:33N 34°34' E 135°24'6 6.2
2015-Mar-01 23:33N 34°40' E 135°26'1 0.0
2015-Mar-01 03:03N 34°40' E 135°27'5 9.3
2015-Mar-01 02:33N 34°37' E 135°24'5 4.8
2015-Mar-01 01:33N 34°32' E 135°24'2 1.7
2015-Mar-01 00:32N 34°34' E 135°24'7 0.3
2015-Feb-28 03:33N 34°40' E 135°27'7 6.6
2015-Feb-28 02:33N 34°34' E 135°24'1 0.6
2015-Feb-28 01:30N 34°34' E 135°24'4 3.7
2015-Feb-28 00:33N 34°33' E 135°20'6 5.5
2015-Feb-27 23:33N 34°38' E 135°23'4 0.2
2015-Feb-27 06:19N 34°40' E 135°27'2 2.8
2015-Feb-27 05:33N 34°39' E 135°26'0 0.5
2015-Feb-27 04:33N 34°39' E 135°26'0 0.0
2015-Feb-27 03:33N 34°39' E 135°26'2 2.1
2015-Feb-27 02:33N 34°38' E 135°24'7 5.3
2015-Feb-27 01:14N 34°31' E 135°23'1 1.4
2015-Feb-27 00:33N 34°32' E 135°23'1 1.2
2015-Feb-26 23:32N 34°31' E 135°24'0 0.0
2015-Feb-26 22:30N 34°31' E 135°24'0 0.0
2015-Feb-26 21:33N 34°31' E 135°24'0 0.3
2015-Feb-26 20:32N 34°31' E 135°24'1010.0
2015-Feb-26 19:33N 34°40' E 135°27'  
2015-Feb-23 07:06N 34°40' E 135°23'5 8.2
2015-Feb-23 06:33N 34°41' E 135°18'1312.9
2015-Feb-23 05:33N 34°37' E 135°03'11 1.7
2015-Feb-22 23:09N 34°43' E 134°51'3 1.7
2015-Feb-22 21:17N 34°40' E 134°48'2 0.1
2015-Feb-22 06:22N 34°41' E 134°50'  

Dump ship's entire track history